createdAt,value
2018-07-09T00:01:15.258Z,4.23
2018-07-09T00:03:44.348Z,4.63
2018-07-09T00:06:13.410Z,4.70
2018-07-09T00:08:42.479Z,4.60
2018-07-09T00:11:11.493Z,5.20
2018-07-09T00:13:40.567Z,4.40
2018-07-09T00:16:09.587Z,4.60
2018-07-09T00:18:38.669Z,4.60
2018-07-09T00:21:07.794Z,4.57
2018-07-09T00:23:36.839Z,4.60
2018-07-09T00:26:05.973Z,4.33
2018-07-09T00:28:35.012Z,4.63
2018-07-09T00:31:04.105Z,3.67
2018-07-09T00:33:33.695Z,4.30
2018-07-09T00:36:02.750Z,4.50
2018-07-09T00:38:31.846Z,5.03
2018-07-09T00:41:01.028Z,3.83
2018-07-09T00:43:30.064Z,4.00
2018-07-09T00:45:59.055Z,4.20
2018-07-09T00:48:28.241Z,5.07
2018-07-09T00:50:57.306Z,4.33
2018-07-09T00:53:25.907Z,4.73
2018-07-09T00:55:54.466Z,4.20
2018-07-09T00:58:24.092Z,4.90
2018-07-09T01:00:53.126Z,5.00
2018-07-09T01:03:22.127Z,4.90
2018-07-09T01:05:51.284Z,4.30
2018-07-09T01:08:20.310Z,4.33
2018-07-09T01:11:00.186Z,3.70
2018-07-09T01:13:40.986Z,4.60
2018-07-09T01:16:10.833Z,4.47
2018-07-09T01:18:39.874Z,4.73
2018-07-09T01:21:14.341Z,4.60
2018-07-09T01:23:43.530Z,4.10
2018-07-09T01:26:12.555Z,4.50
2018-07-09T01:28:42.447Z,4.80
2018-07-09T01:31:11.541Z,5.37
2018-07-09T01:33:40.641Z,4.70
2018-07-09T01:36:09.687Z,5.27
2018-07-09T01:38:39.510Z,4.73
2018-07-09T01:41:08.716Z,4.77
2018-07-09T01:43:37.839Z,4.37
2018-07-09T01:46:06.970Z,4.30
2018-07-09T01:48:36.007Z,5.23
2018-07-09T01:51:05.325Z,4.63
2018-07-09T01:53:34.360Z,4.33
2018-07-09T01:56:03.403Z,5.17
2018-07-09T01:58:32.443Z,5.60
2018-07-09T02:01:01.556Z,4.27
2018-07-09T02:03:30.593Z,4.50
2018-07-09T02:05:59.615Z,4.53
2018-07-09T02:08:28.231Z,5.20
2018-07-09T02:10:57.280Z,5.20
2018-07-09T02:13:26.305Z,4.53
2018-07-09T02:15:55.294Z,5.23
2018-07-09T02:18:24.326Z,4.70
2018-07-09T02:20:53.387Z,4.03
2018-07-09T02:23:22.478Z,5.30
2018-07-09T02:25:51.643Z,4.73
2018-07-09T02:28:20.900Z,4.83
2018-07-09T02:30:50.158Z,5.33
2018-07-09T02:33:19.187Z,4.37
2018-07-09T02:35:48.229Z,4.40
2018-07-09T02:38:17.340Z,4.80
2018-07-09T02:40:46.430Z,4.87
2018-07-09T02:43:15.495Z,4.80
2018-07-09T02:45:44.549Z,5.40
2018-07-09T02:48:13.605Z,4.90
2018-07-09T02:50:42.160Z,5.00
2018-07-09T02:53:11.206Z,4.63
2018-07-09T02:55:40.269Z,4.77
2018-07-09T02:58:09.312Z,4.77
2018-07-09T03:00:38.453Z,5.33
2018-07-09T03:03:07.771Z,5.03
2018-07-09T03:05:36.870Z,5.30
2018-07-09T03:08:06.074Z,5.20
2018-07-09T03:10:35.123Z,5.20
2018-07-09T03:13:04.155Z,4.43
2018-07-09T03:15:33.247Z,4.90
2018-07-09T03:18:02.390Z,6.53
2018-07-09T03:20:31.420Z,4.53
2018-07-09T03:23:00.502Z,5.87
2018-07-09T03:25:29.495Z,4.70
2018-07-09T03:27:58.552Z,5.03
2018-07-09T03:30:27.555Z,5.07
2018-07-09T03:32:56.635Z,5.40
2018-07-09T03:35:25.735Z,4.57
2018-07-09T03:37:54.772Z,4.80
2018-07-09T03:40:23.811Z,5.23
2018-07-09T03:42:52.851Z,5.00
2018-07-09T03:45:21.919Z,6.10
2018-07-09T03:47:50.947Z,5.57
2018-07-09T03:50:19.972Z,5.43
2018-07-09T03:52:48.983Z,5.10
2018-07-09T03:55:18.041Z,4.70
2018-07-09T03:57:47.049Z,5.60
2018-07-09T04:00:16.133Z,5.70
2018-07-09T04:02:45.166Z,5.40
2018-07-09T04:05:14.150Z,5.70
2018-07-09T04:07:43.170Z,4.97
2018-07-09T04:10:12.199Z,5.53
2018-07-09T04:12:41.284Z,5.70
2018-07-09T04:15:10.418Z,5.20
2018-07-09T04:17:39.479Z,5.70
2018-07-09T04:20:08.514Z,5.73
2018-07-09T04:22:37.534Z,5.97
2018-07-09T04:25:06.611Z,5.57
2018-07-09T04:27:35.173Z,5.57
2018-07-09T04:30:04.380Z,5.23
2018-07-09T04:32:33.400Z,5.30
2018-07-09T04:35:02.450Z,5.53
2018-07-09T04:37:31.474Z,4.87
2018-07-09T04:40:00.478Z,5.30
2018-07-09T04:42:29.514Z,5.80
2018-07-09T04:44:58.603Z,5.87
2018-07-09T04:47:27.671Z,5.40
2018-07-09T04:49:56.662Z,6.07
2018-07-09T04:52:25.737Z,5.43
2018-07-09T04:54:54.889Z,5.83
2018-07-09T04:57:23.902Z,6.53
2018-07-09T04:59:52.950Z,5.47
2018-07-09T05:02:21.970Z,5.90
2018-07-09T05:04:50.988Z,6.33
2018-07-09T05:07:20.001Z,4.83
2018-07-09T05:09:49.066Z,5.73
2018-07-09T05:12:18.111Z,5.47
2018-07-09T05:14:47.243Z,5.73
2018-07-09T05:17:16.254Z,5.50
2018-07-09T05:19:44.793Z,6.00
2018-07-09T05:22:13.848Z,5.80
2018-07-09T05:24:42.874Z,6.30
2018-07-09T05:27:12.918Z,6.40
2018-07-09T05:29:41.982Z,5.63
2018-07-09T05:32:11.033Z,5.90
2018-07-09T05:34:40.103Z,6.27
2018-07-09T05:37:09.227Z,5.10
2018-07-09T05:39:38.639Z,5.60
2018-07-09T05:42:07.747Z,7.50
2018-07-09T05:44:37.497Z,6.30
2018-07-09T05:47:06.830Z,6.10
2018-07-09T05:49:36.041Z,7.97
2018-07-09T05:52:05.115Z,6.30
2018-07-09T05:54:34.151Z,7.50
2018-07-09T05:57:03.312Z,7.17
2018-07-09T05:59:32.552Z,6.77
2018-07-09T06:02:01.612Z,6.67
2018-07-09T06:04:30.707Z,6.67
2018-07-09T06:06:59.770Z,6.70
2018-07-09T06:09:29.753Z,6.90
2018-07-09T06:11:58.824Z,6.63
2018-07-09T06:14:27.899Z,6.23
2018-07-09T06:16:56.914Z,5.97
2018-07-09T06:19:26.011Z,6.67
2018-07-09T06:21:55.047Z,6.60
2018-07-09T06:24:24.161Z,6.80
2018-07-09T06:26:53.411Z,6.00
2018-07-09T06:29:22.466Z,5.80
2018-07-09T06:31:51.506Z,6.50
2018-07-09T06:34:20.601Z,5.67
2018-07-09T06:36:49.659Z,6.67
2018-07-09T06:39:18.645Z,6.30
2018-07-09T06:41:47.760Z,6.27
2018-07-09T06:44:16.854Z,6.03
2018-07-09T06:46:45.955Z,5.67
2018-07-09T06:49:15.064Z,5.83
2018-07-09T06:51:44.135Z,5.90
2018-07-09T06:54:13.154Z,5.20
2018-07-09T06:56:42.293Z,6.40
2018-07-09T06:59:11.410Z,5.83
2018-07-09T07:01:40.449Z,5.93
2018-07-09T07:04:09.535Z,6.03
2018-07-09T07:06:39.109Z,4.83
2018-07-09T07:09:08.348Z,5.50
2018-07-09T07:11:37.439Z,5.23
2018-07-09T07:14:06.535Z,5.17
2018-07-09T07:16:35.678Z,5.30
2018-07-09T07:19:04.775Z,6.20
2018-07-09T07:21:33.842Z,5.40
2018-07-09T07:24:02.839Z,5.30
2018-07-09T07:26:31.950Z,4.63
2018-07-09T07:29:01.403Z,4.90
2018-07-09T07:31:30.458Z,5.00
2018-07-09T07:33:59.554Z,4.50
2018-07-09T07:36:28.661Z,5.10
2018-07-09T07:38:57.814Z,5.30
2018-07-09T07:41:26.857Z,4.77
2018-07-09T07:43:55.931Z,4.47
2018-07-09T07:46:25.015Z,4.53
2018-07-09T07:48:54.125Z,5.20
2018-07-09T07:51:23.201Z,4.57
2018-07-09T07:53:52.244Z,4.70
2018-07-09T07:56:21.321Z,4.60
2018-07-09T07:58:50.324Z,4.33
2018-07-09T08:01:18.929Z,5.00
2018-07-09T08:03:47.975Z,4.30
2018-07-09T08:06:17.046Z,5.13
2018-07-09T08:08:46.122Z,5.00
2018-07-09T08:11:15.280Z,4.80
2018-07-09T08:13:44.384Z,4.37
2018-07-09T08:16:13.464Z,4.90
2018-07-09T08:18:42.602Z,5.03
2018-07-09T08:21:11.723Z,4.50
2018-07-09T08:23:40.815Z,5.33
2018-07-09T08:26:09.903Z,4.50
2018-07-09T08:28:38.935Z,4.17
2018-07-09T08:31:08.148Z,4.80
2018-07-09T08:33:37.113Z,4.20
2018-07-09T08:36:06.525Z,4.07
2018-07-09T08:38:35.650Z,4.47
2018-07-09T08:41:05.143Z,4.60
2018-07-09T08:43:34.182Z,4.90
2018-07-09T08:46:03.249Z,4.83
2018-07-09T08:48:32.427Z,4.00
2018-07-09T08:51:02.831Z,4.60
2018-07-09T08:53:32.000Z,4.40
2018-07-09T08:56:01.260Z,4.10
2018-07-09T08:58:30.321Z,5.07
2018-07-09T09:00:59.355Z,3.73
2018-07-09T09:03:28.429Z,3.53
2018-07-09T09:05:57.491Z,4.00
2018-07-09T09:08:26.562Z,4.30
2018-07-09T09:10:56.142Z,4.37
2018-07-09T09:13:25.259Z,4.10
2018-07-09T09:15:54.308Z,4.10
2018-07-09T09:18:23.476Z,4.53
2018-07-09T09:20:52.094Z,4.30
2018-07-09T09:23:21.901Z,4.20
2018-07-09T09:25:50.985Z,3.70
2018-07-09T09:28:20.031Z,4.10
2018-07-09T09:30:49.142Z,4.27
2018-07-09T09:33:18.204Z,4.60
2018-07-09T09:35:47.246Z,5.00
2018-07-09T09:38:16.336Z,5.20
2018-07-09T09:40:45.364Z,4.90
2018-07-09T09:43:14.500Z,4.30
2018-07-09T09:45:43.514Z,3.83
2018-07-09T09:48:12.535Z,4.67
2018-07-09T09:50:41.647Z,3.90
2018-07-09T09:53:10.733Z,3.93
2018-07-09T09:55:39.771Z,4.53
2018-07-09T09:58:09.337Z,4.37
2018-07-09T10:00:43.565Z,3.77
2018-07-09T10:03:12.654Z,4.40
2018-07-09T10:05:41.734Z,4.30
2018-07-09T10:08:11.743Z,4.37
2018-07-09T10:10:40.818Z,3.90
2018-07-09T10:13:09.970Z,3.80
2018-07-09T10:15:39.118Z,4.00
2018-07-09T10:18:09.149Z,3.30
2018-07-09T10:20:38.122Z,4.10
2018-07-09T10:23:07.270Z,4.33
2018-07-09T10:25:36.354Z,4.20
2018-07-09T10:28:05.459Z,4.27
2018-07-09T10:30:34.650Z,4.63
2018-07-09T10:33:03.699Z,4.00
2018-07-09T10:35:32.733Z,4.10
2018-07-09T10:38:01.774Z,4.30
2018-07-09T10:40:30.859Z,4.00
2018-07-09T10:42:59.950Z,4.50
2018-07-09T10:45:29.320Z,4.00
2018-07-09T10:47:58.499Z,4.30
2018-07-09T10:50:27.496Z,3.47
2018-07-09T10:52:56.718Z,3.67
2018-07-09T10:55:25.848Z,3.93
2018-07-09T10:57:54.969Z,3.67
2018-07-09T11:00:24.033Z,4.40
2018-07-09T11:02:53.567Z,3.70
2018-07-09T11:05:23.064Z,3.90
2018-07-09T11:07:52.574Z,4.03
2018-07-09T11:10:21.629Z,4.07
2018-07-09T11:12:50.731Z,4.27
2018-07-09T11:15:19.998Z,4.50
2018-07-09T11:17:49.011Z,3.67
2018-07-09T11:20:18.038Z,4.27
2018-07-09T11:22:47.117Z,5.17
2018-07-09T11:25:16.144Z,4.13
2018-07-09T11:27:45.218Z,4.07
2018-07-09T11:30:14.402Z,4.33
2018-07-09T11:32:43.510Z,4.07
2018-07-09T11:35:12.922Z,4.00
2018-07-09T11:37:42.002Z,4.40
2018-07-09T11:40:11.068Z,4.13
2018-07-09T11:42:40.236Z,4.30
2018-07-09T11:45:09.310Z,3.90
2018-07-09T11:47:38.358Z,3.60
2018-07-09T11:50:07.733Z,3.60
2018-07-09T11:52:36.844Z,3.43
2018-07-09T11:55:05.968Z,3.37
2018-07-09T11:57:35.020Z,4.10
2018-07-09T12:00:04.399Z,3.70
2018-07-09T12:02:33.479Z,4.13
2018-07-09T12:05:02.662Z,3.80
2018-07-09T12:07:31.758Z,4.20
2018-07-09T12:10:00.800Z,4.50
2018-07-09T12:12:29.858Z,3.87
2018-07-09T12:14:58.449Z,3.60
2018-07-09T12:17:27.478Z,3.87
2018-07-09T12:19:56.559Z,4.60
2018-07-09T12:22:25.620Z,3.47
2018-07-09T12:24:54.665Z,4.30
2018-07-09T12:27:23.752Z,4.63
2018-07-09T12:29:52.856Z,3.93
2018-07-09T12:32:21.886Z,3.70
2018-07-09T12:34:50.922Z,3.60
2018-07-09T12:37:19.953Z,4.23
2018-07-09T12:39:49.103Z,4.00
2018-07-09T12:42:18.183Z,3.80
2018-07-09T12:44:47.239Z,3.27
2018-07-09T12:47:16.219Z,3.80
2018-07-09T12:49:45.295Z,4.43
2018-07-09T12:52:14.483Z,3.50
2018-07-09T12:54:43.654Z,4.00
2018-07-09T12:57:12.751Z,4.03
2018-07-09T12:59:41.810Z,4.07
2018-07-09T13:02:10.904Z,4.23
2018-07-09T13:04:39.974Z,4.13
2018-07-09T13:07:09.074Z,4.30
2018-07-09T13:09:38.255Z,4.07
2018-07-09T13:12:07.434Z,4.27
2018-07-09T13:14:36.516Z,4.33
2018-07-09T13:17:05.670Z,4.27
2018-07-09T13:19:34.755Z,4.30
2018-07-09T13:22:04.444Z,4.10
2018-07-09T13:24:33.496Z,4.40
2018-07-09T13:27:02.844Z,3.70
2018-07-09T13:29:32.017Z,4.27
2018-07-09T13:32:01.100Z,3.50
2018-07-09T13:34:30.218Z,4.77
2018-07-09T13:36:59.407Z,3.43
2018-07-09T13:39:28.627Z,3.90
2018-07-09T13:41:57.826Z,3.90
2018-07-09T13:44:26.855Z,3.67
2018-07-09T13:46:55.901Z,3.77
2018-07-09T13:49:24.930Z,3.30
2018-07-09T13:51:54.516Z,3.43
2018-07-09T13:54:23.652Z,4.50
2018-07-09T13:56:53.062Z,3.93
2018-07-09T13:59:22.275Z,3.93
2018-07-09T14:01:51.290Z,4.03
2018-07-09T14:04:20.329Z,3.63
2018-07-09T14:06:49.355Z,3.50
2018-07-09T14:09:18.339Z,3.70
2018-07-09T14:11:47.850Z,3.47
2018-07-09T14:14:16.846Z,3.23
2018-07-09T14:16:45.869Z,4.30
2018-07-09T14:19:25.908Z,3.50
2018-07-09T14:21:54.977Z,2.80
2018-07-09T14:24:24.000Z,3.30
2018-07-09T14:26:53.186Z,3.13
2018-07-09T14:29:22.256Z,3.67
2018-07-09T14:31:51.262Z,3.47
2018-07-09T14:34:20.315Z,2.90
2018-07-09T14:36:49.411Z,3.23
2018-07-09T14:39:18.401Z,3.57
2018-07-09T14:41:47.648Z,3.57
2018-07-09T14:44:16.976Z,2.97
2018-07-09T14:46:45.707Z,3.63
2018-07-09T14:49:14.698Z,3.13
2018-07-09T14:51:43.867Z,3.27
2018-07-09T14:54:12.961Z,3.37
2018-07-09T14:56:42.082Z,3.60
2018-07-09T14:59:11.122Z,3.70
2018-07-09T15:01:40.122Z,4.30
2018-07-09T15:04:09.192Z,3.30
2018-07-09T15:06:38.202Z,3.37
2018-07-09T15:09:07.285Z,3.20
2018-07-09T15:11:36.306Z,3.83
2018-07-09T15:14:05.627Z,3.63
2018-07-09T15:16:34.635Z,3.53
2018-07-09T15:19:03.732Z,3.57
2018-07-09T15:21:32.782Z,3.33
2018-07-09T15:24:01.817Z,3.80
2018-07-09T15:26:30.854Z,3.60
2018-07-09T15:28:59.878Z,4.00
2018-07-09T15:31:29.016Z,3.80
2018-07-09T15:33:58.079Z,3.60
2018-07-09T15:36:27.130Z,3.23
2018-07-09T15:38:56.153Z,3.43
2018-07-09T15:41:25.192Z,3.37
2018-07-09T15:44:01.418Z,3.23
2018-07-09T15:46:31.363Z,3.70
2018-07-09T15:49:00.834Z,3.73
2018-07-09T15:51:29.875Z,3.80
2018-07-09T15:53:58.899Z,3.70
2018-07-09T15:56:29.403Z,4.00
2018-07-09T15:58:58.826Z,3.20
2018-07-09T16:01:28.103Z,3.20
2018-07-09T16:03:57.159Z,3.50
2018-07-09T16:06:26.191Z,3.20
2018-07-09T16:08:55.692Z,3.63
2018-07-09T16:11:25.758Z,3.43
2018-07-09T16:13:54.857Z,3.27
2018-07-09T16:16:23.903Z,3.67
2018-07-09T16:18:52.886Z,4.00
2018-07-09T16:21:21.953Z,3.63
2018-07-09T16:23:51.023Z,3.27
2018-07-09T16:26:20.008Z,2.97
2018-07-09T16:28:49.345Z,3.33
2018-07-09T16:31:18.364Z,3.87
2018-07-09T16:33:47.420Z,3.50
2018-07-09T16:36:16.473Z,3.63
2018-07-09T16:38:45.529Z,3.00
2018-07-09T16:41:14.583Z,3.27
2018-07-09T16:43:43.639Z,3.67
2018-07-09T16:46:12.899Z,3.17
2018-07-09T16:48:41.996Z,3.77
2018-07-09T16:51:11.094Z,3.33
2018-07-09T16:53:40.152Z,3.73
2018-07-09T16:56:09.303Z,3.67
2018-07-09T16:58:38.527Z,3.70
2018-07-09T17:01:07.641Z,3.17
2018-07-09T17:03:36.770Z,3.70
2018-07-09T17:06:05.949Z,3.70
2018-07-09T17:08:35.407Z,3.50
2018-07-09T17:11:04.611Z,3.13
2018-07-09T17:13:33.690Z,3.10
2018-07-09T17:16:02.726Z,3.60
2018-07-09T17:18:32.090Z,3.20
2018-07-09T17:21:01.241Z,3.20
2018-07-09T17:23:30.297Z,3.77
2018-07-09T17:25:59.337Z,3.60
2018-07-09T17:28:28.351Z,3.13
2018-07-09T17:30:57.897Z,3.63
2018-07-09T17:33:27.194Z,4.00
2018-07-09T17:35:56.286Z,4.23
2018-07-09T17:38:25.278Z,3.73
2018-07-09T17:40:54.347Z,3.30
2018-07-09T17:43:23.401Z,3.40
2018-07-09T17:45:52.598Z,3.57
2018-07-09T17:48:21.659Z,3.57
2018-07-09T17:50:51.036Z,3.67
2018-07-09T17:53:20.058Z,4.00
2018-07-09T17:55:49.228Z,4.10
2018-07-09T17:58:18.545Z,4.13
2018-07-09T18:00:47.890Z,4.33
2018-07-09T18:03:17.410Z,3.63
2018-07-09T18:05:46.786Z,4.33
2018-07-09T18:08:16.248Z,3.37
2018-07-09T18:10:46.079Z,4.00
2018-07-09T18:13:15.471Z,3.80
2018-07-09T18:15:44.818Z,4.10
2018-07-09T18:18:14.031Z,4.63
2018-07-09T18:20:43.827Z,5.03
2018-07-09T18:23:13.039Z,4.80
2018-07-09T18:25:42.864Z,4.10
2018-07-09T18:28:12.112Z,4.63
2018-07-09T18:30:41.506Z,4.00
2018-07-09T18:33:10.911Z,4.10
2018-07-09T18:35:40.323Z,4.87
2018-07-09T18:38:09.579Z,4.13
2018-07-09T18:40:38.932Z,4.13
2018-07-09T18:43:08.207Z,4.57
2018-07-09T18:45:37.383Z,4.70
2018-07-09T18:48:06.604Z,4.50
2018-07-09T18:50:36.008Z,4.03
2018-07-09T18:53:05.479Z,4.57
2018-07-09T18:55:34.870Z,4.13
2018-07-09T18:58:04.140Z,4.00
2018-07-09T19:00:33.421Z,4.70
2018-07-09T19:03:02.832Z,4.90
2018-07-09T19:06:40.389Z,5.00
2018-07-09T19:09:09.805Z,5.67
2018-07-09T19:11:39.333Z,5.47
2018-07-09T19:14:09.339Z,5.33
2018-07-09T19:16:50.340Z,5.30
2018-07-09T19:19:30.401Z,5.40
2018-07-09T19:22:04.382Z,7.43
2018-07-09T19:24:32.555Z,5.67
2018-07-09T19:27:01.033Z,5.33
2018-07-09T19:29:28.680Z,4.80
2018-07-09T19:31:56.427Z,4.90
2018-07-09T19:34:24.279Z,5.23
2018-07-09T19:36:52.121Z,5.30
2018-07-09T19:39:19.754Z,5.50
2018-07-09T19:41:47.612Z,6.47
2018-07-09T19:44:15.556Z,5.30
2018-07-09T19:46:43.329Z,5.80
2018-07-09T19:49:11.227Z,5.33
2018-07-09T19:51:39.156Z,6.03
2018-07-09T19:54:07.054Z,5.40
2018-07-09T19:56:34.952Z,5.50
2018-07-09T19:59:02.808Z,6.27
2018-07-09T20:01:30.732Z,5.40
2018-07-09T20:03:58.603Z,5.40
2018-07-09T20:06:27.106Z,5.87
2018-07-09T20:09:00.163Z,5.10
2018-07-09T20:11:33.176Z,5.53
2018-07-09T20:15:03.927Z,5.27
2018-07-09T20:17:36.085Z,6.17
2018-07-09T20:20:04.154Z,5.53
2018-07-09T20:22:31.983Z,6.10
2018-07-09T20:24:59.916Z,5.90
2018-07-09T20:27:27.792Z,6.40
2018-07-09T20:29:55.782Z,6.37
2018-07-09T20:32:23.939Z,6.00
2018-07-09T20:34:52.296Z,5.50
2018-07-09T20:37:20.215Z,5.77
2018-07-09T20:39:47.804Z,6.17
2018-07-09T20:42:15.411Z,6.97
2018-07-09T20:44:42.990Z,5.83
2018-07-09T20:47:10.594Z,6.27
2018-07-09T20:49:38.251Z,6.30
2018-07-09T20:52:06.824Z,6.20
2018-07-09T20:54:34.808Z,6.40
2018-07-09T20:57:02.733Z,6.50
2018-07-09T20:59:30.694Z,5.90
2018-07-09T21:01:58.880Z,6.00
2018-07-09T21:04:27.243Z,6.60
2018-07-09T21:06:56.828Z,6.40
2018-07-09T21:09:25.294Z,6.43
2018-07-09T21:11:53.721Z,7.07
2018-07-09T21:14:21.572Z,6.60
2018-07-09T21:16:49.434Z,6.50
2018-07-09T21:19:17.444Z,6.67
2018-07-09T21:21:45.823Z,7.47
2018-07-09T21:24:13.940Z,6.77
2018-07-09T21:26:41.925Z,6.67
2018-07-09T21:29:09.978Z,6.30
2018-07-09T21:31:37.976Z,7.60
2018-07-09T21:34:06.051Z,6.90
2018-07-09T21:36:34.380Z,6.30
2018-07-09T21:39:02.468Z,6.93
2018-07-09T21:41:30.591Z,6.80
2018-07-09T21:43:59.004Z,6.80
2018-07-09T21:46:26.610Z,6.70
2018-07-09T21:48:54.215Z,6.73
2018-07-09T21:51:21.828Z,6.57
2018-07-09T21:53:49.399Z,6.60
2018-07-09T21:56:17.012Z,6.20
2018-07-09T21:58:44.631Z,6.80
2018-07-09T22:01:12.258Z,6.17
2018-07-09T22:03:39.891Z,7.03
2018-07-09T22:06:07.522Z,6.10
2018-07-09T22:08:35.094Z,7.30
2018-07-09T22:11:02.728Z,6.80
2018-07-09T22:13:30.303Z,6.60
2018-07-09T22:15:57.944Z,7.10
2018-07-09T22:18:25.551Z,7.37
2018-07-09T22:20:53.165Z,7.40
2018-07-09T22:23:20.788Z,7.77
2018-07-09T22:25:48.419Z,7.70
2018-07-09T22:28:16.035Z,7.53
2018-07-09T22:30:45.120Z,7.90
2018-07-09T22:33:14.187Z,7.80
2018-07-09T22:35:43.180Z,6.40
2018-07-09T22:38:12.227Z,8.00
2018-07-09T22:40:41.247Z,6.40
2018-07-09T22:43:21.383Z,6.70
2018-07-09T22:45:50.438Z,5.93
2018-07-09T22:48:19.439Z,5.83
2018-07-09T22:50:48.489Z,6.47
2018-07-09T22:53:17.057Z,4.80
2018-07-09T22:55:57.026Z,5.13
2018-07-09T22:58:26.054Z,4.60
2018-07-09T23:00:55.135Z,5.30
2018-07-09T23:03:24.195Z,5.27
2018-07-09T23:05:53.220Z,5.33
2018-07-09T23:08:24.332Z,5.00
2018-07-09T23:13:00.774Z,5.43
2018-07-09T23:15:40.557Z,5.17
2018-07-09T23:18:18.337Z,6.40
2018-07-09T23:20:58.234Z,5.77
2018-07-09T23:23:25.801Z,5.83
2018-07-09T23:25:53.440Z,5.37
2018-07-09T23:28:21.047Z,6.33
2018-07-09T23:30:48.637Z,6.60
2018-07-09T23:33:16.234Z,6.50
2018-07-09T23:35:43.807Z,6.27
2018-07-09T23:38:11.421Z,6.90
2018-07-09T23:40:39.255Z,6.70
2018-07-09T23:43:06.888Z,5.47
2018-07-09T23:45:34.500Z,5.77
2018-07-09T23:48:02.100Z,6.60
2018-07-09T23:50:29.710Z,6.70
2018-07-09T23:52:57.292Z,5.77
2018-07-09T23:55:26.614Z,6.30
